Terminal Aerodrome Forecast
Issued by NWS Columbia, SC

Home | Current Version | Previous Version | Text Only | Print | Product List | Glossary On
Versions: 1 2 3 4 5 6 7 8 9 10 11 12 13 14 15 16 17 18 19 20 21 22 23 24 25 26 27 28 29 30 31 32 33 34 35 36 37 38 39
000
FTUS42 KCAE 241847 AAB
TAFCAE
TAF AMD
KCAE 241847Z 2419/2518 18012G20KT 6SM -TSRA BKN030CB OVC060
      TEMPO 2419/2422 1SM +TSRA BR BKN015CB
     FM250300 24010KT P6SM SCT040
     FM251500 26015G25KT P6SM SCT050=

USA.gov is the U.S. government's official web portal to all federal, state and local government web resources and services.